createdAt,value
2023-04-12T00:02:19.713Z,6.43
2023-04-12T00:04:50.063Z,5.67
2023-04-12T00:07:18.440Z,7.63
2023-04-12T00:09:45.322Z,6.40
2023-04-12T00:12:12.188Z,4.70
2023-04-12T00:14:39.019Z,6.37
2023-04-12T00:17:06.270Z,5.87
2023-04-12T00:19:33.312Z,4.87
2023-04-12T00:22:00.179Z,6.13
2023-04-12T00:24:27.046Z,9.70
2023-04-12T00:26:54.427Z,5.50
2023-04-12T00:29:21.354Z,8.00
2023-04-12T00:31:48.413Z,8.10
2023-04-12T00:34:15.988Z,7.20
2023-04-12T00:36:43.035Z,8.20
2023-04-12T00:39:10.011Z,10.00
2023-04-12T00:41:37.836Z,9.43
2023-04-12T00:44:04.955Z,8.67
2023-04-12T00:46:33.254Z,11.00
2023-04-12T00:49:00.699Z,9.63
2023-04-12T00:51:33.227Z,8.73
2023-04-12T00:54:01.622Z,11.43
2023-04-12T00:56:29.184Z,12.07
2023-04-12T00:58:57.227Z,11.43
2023-04-12T01:01:24.396Z,11.43
2023-04-12T01:04:01.056Z,11.07
2023-04-12T01:06:45.352Z,9.00
2023-04-12T01:09:34.407Z,10.10
2023-04-12T01:12:20.267Z,11.30
2023-04-12T01:15:24.302Z,12.50
2023-04-12T01:18:08.528Z,11.60
2023-04-12T01:20:44.917Z,12.60
2023-04-12T01:23:50.378Z,12.93
2023-04-12T01:26:41.828Z,13.47
2023-04-12T01:29:11.448Z,10.03
2023-04-12T01:31:41.941Z,11.33
2023-04-12T01:34:12.042Z,15.20
2023-04-12T01:36:40.104Z,15.20
2023-04-12T01:39:07.888Z,12.67
2023-04-12T01:41:40.005Z,16.17
2023-04-12T01:44:06.992Z,13.33
2023-04-12T01:46:34.570Z,11.30
2023-04-12T01:49:01.778Z,19.47
2023-04-12T01:51:46.170Z,14.47
2023-04-12T01:54:36.979Z,16.33
2023-04-12T01:57:05.209Z,13.10
2023-04-12T01:59:36.290Z,13.83
2023-04-12T02:02:03.613Z,12.33
2023-04-12T02:04:31.703Z,11.80
2023-04-12T02:06:58.813Z,10.37
2023-04-12T02:09:26.056Z,15.60
2023-04-12T02:11:52.950Z,14.17
2023-04-12T02:14:19.792Z,14.87
2023-04-12T02:16:46.667Z,13.37
2023-04-12T02:19:14.060Z,15.43
2023-04-12T02:21:42.687Z,13.90
2023-04-12T02:24:11.293Z,14.83
2023-04-12T02:26:39.042Z,14.13
2023-04-12T02:29:07.797Z,14.07
2023-04-12T02:31:36.628Z,15.30
2023-04-12T02:34:03.481Z,12.77
2023-04-12T02:36:30.206Z,15.57
2023-04-12T02:38:57.114Z,14.10
2023-04-12T02:41:24.569Z,17.57
2023-04-12T02:43:51.601Z,17.10
2023-04-12T02:46:27.212Z,15.07
2023-04-12T02:48:54.563Z,14.77
2023-04-12T02:51:22.587Z,18.63
2023-04-12T02:53:49.481Z,19.87
2023-04-12T02:56:19.082Z,18.67
2023-04-12T02:58:46.332Z,14.90
2023-04-12T03:01:14.513Z,17.27
2023-04-12T03:03:42.813Z,19.47
2023-04-12T03:06:09.930Z,19.43
2023-04-12T03:08:36.721Z,21.10
2023-04-12T03:11:03.539Z,19.83
2023-04-12T03:13:30.343Z,18.03
2023-04-12T03:15:59.902Z,18.73
2023-04-12T03:18:27.031Z,21.23
2023-04-12T03:20:54.109Z,19.90
2023-04-12T03:23:21.181Z,20.30
2023-04-12T03:25:48.183Z,20.70
2023-04-12T03:28:15.037Z,20.00
2023-04-12T03:30:41.879Z,23.10
2023-04-12T03:33:08.866Z,24.07
2023-04-12T03:35:36.458Z,22.87
2023-04-12T03:38:03.472Z,21.30
2023-04-12T03:40:30.854Z,22.00
2023-04-12T03:42:58.821Z,23.87
2023-04-12T03:45:27.061Z,19.80
2023-04-12T03:47:55.142Z,21.53
2023-04-12T03:50:22.558Z,17.77
2023-04-12T03:52:49.343Z,20.00
2023-04-12T03:55:18.326Z,22.07
2023-04-12T03:57:45.464Z,22.10
2023-04-12T04:00:13.460Z,21.50
2023-04-12T04:02:40.534Z,23.37
2023-04-12T04:05:07.846Z,19.83
2023-04-12T04:07:35.169Z,21.37
2023-04-12T04:10:02.881Z,21.47
2023-04-12T04:12:29.960Z,21.40
2023-04-12T04:14:56.840Z,21.37
2023-04-12T04:17:23.817Z,21.27
2023-04-12T04:19:51.792Z,21.60
2023-04-12T04:22:21.501Z,22.07
2023-04-12T04:24:50.180Z,22.33
2023-04-12T04:27:17.283Z,20.03
2023-04-12T04:29:45.604Z,21.57
2023-04-12T04:32:12.999Z,20.80
2023-04-12T04:34:40.295Z,21.10
2023-04-12T04:37:07.720Z,18.73
2023-04-12T04:39:34.497Z,20.63
2023-04-12T04:42:01.791Z,25.20
2023-04-12T04:44:28.877Z,21.27
2023-04-12T04:46:57.922Z,17.17
2023-04-12T04:49:24.892Z,20.07
2023-04-12T04:51:51.691Z,19.57
2023-04-12T04:54:18.924Z,21.40
2023-04-12T04:56:45.835Z,19.60
2023-04-12T04:59:12.868Z,20.50
2023-04-12T05:01:41.381Z,19.77
2023-04-12T05:04:08.674Z,22.40
2023-04-12T05:06:35.822Z,21.00
2023-04-12T05:09:02.821Z,22.50
2023-04-12T05:11:29.805Z,22.67
2023-04-12T05:13:56.725Z,22.33
2023-04-12T05:16:23.552Z,20.77
2023-04-12T05:18:50.366Z,21.70
2023-04-12T05:21:17.185Z,20.33
2023-04-12T05:23:46.846Z,23.93
2023-04-12T05:26:13.953Z,22.37
2023-04-12T05:28:41.315Z,21.77
2023-04-12T05:31:08.504Z,22.33
2023-04-12T05:33:36.835Z,24.13
2023-04-12T05:36:04.897Z,24.13
2023-04-12T05:38:31.878Z,22.57
2023-04-12T05:40:59.007Z,20.97
2023-04-12T05:43:25.838Z,24.23
2023-04-12T05:45:53.029Z,23.67
2023-04-12T05:48:20.155Z,25.27
2023-04-12T05:50:54.535Z,22.83
2023-04-12T05:53:22.075Z,19.20
2023-04-12T05:55:48.966Z,20.77
2023-04-12T05:58:15.951Z,24.97
2023-04-12T06:00:43.106Z,24.00
2023-04-12T06:03:11.575Z,24.00
2023-04-12T06:05:39.125Z,23.00
2023-04-12T06:08:06.413Z,21.50
2023-04-12T06:10:33.156Z,25.50
2023-04-12T06:13:00.213Z,21.77
2023-04-12T06:15:27.134Z,23.47
2023-04-12T06:17:54.022Z,21.63
2023-04-12T06:20:20.905Z,23.03
2023-04-12T06:22:47.778Z,21.20
2023-04-12T06:25:16.488Z,19.70
2023-04-12T06:27:43.914Z,20.57
2023-04-12T06:30:11.278Z,20.80
2023-04-12T06:32:38.702Z,18.27
2023-04-12T06:35:06.657Z,21.97
2023-04-12T06:37:33.799Z,20.63
2023-04-12T06:40:00.768Z,21.80
2023-04-12T06:42:27.780Z,22.13
2023-04-12T06:44:54.685Z,20.30
2023-04-12T06:47:22.848Z,20.53
2023-04-12T06:49:52.789Z,21.73
2023-04-12T06:52:27.074Z,23.43
2023-04-12T06:54:56.094Z,18.97
2023-04-12T06:57:23.210Z,21.03
2023-04-12T06:59:50.316Z,22.37
2023-04-12T07:02:17.472Z,20.80
2023-04-12T07:04:44.386Z,21.07
2023-04-12T07:07:11.469Z,26.00
2023-04-12T07:09:38.624Z,23.27
2023-04-12T07:12:05.787Z,20.53
2023-04-12T07:14:32.757Z,22.70
2023-04-12T07:16:59.534Z,20.87
2023-04-12T07:19:26.581Z,19.33
2023-04-12T07:21:53.413Z,22.47
2023-04-12T07:24:20.429Z,24.03
2023-04-12T07:26:47.452Z,19.33
2023-04-12T07:29:14.476Z,74.93
2023-04-12T07:31:41.466Z,54.40
2023-04-12T07:34:08.643Z,20.60
2023-04-12T07:36:35.732Z,21.80
2023-04-12T07:39:02.625Z,16.77
2023-04-12T07:41:29.476Z,18.33
2023-04-12T07:43:56.623Z,24.13
2023-04-12T07:46:23.406Z,40.07
2023-04-12T07:48:51.629Z,18.73
2023-04-12T07:51:18.617Z,17.97
2023-04-12T07:53:48.350Z,15.53
2023-04-12T07:56:15.736Z,17.83
2023-04-12T07:58:42.569Z,16.50
2023-04-12T08:01:12.142Z,17.23
2023-04-12T08:03:39.567Z,14.00
2023-04-12T08:06:06.849Z,15.13
2023-04-12T08:08:34.093Z,13.13
2023-04-12T08:11:02.933Z,15.17
2023-04-12T08:13:29.734Z,15.23
2023-04-12T08:15:56.852Z,14.57
2023-04-12T08:18:23.740Z,13.20
2023-04-12T08:20:50.513Z,18.00
2023-04-12T08:23:17.876Z,16.00
2023-04-12T08:25:44.768Z,14.77
2023-04-12T08:28:12.370Z,50.73
2023-04-12T08:30:39.566Z,15.83
2023-04-12T08:33:06.573Z,16.13
2023-04-12T08:35:33.876Z,15.43
2023-04-12T08:38:07.012Z,14.93
2023-04-12T08:40:34.201Z,18.00
2023-04-12T08:43:08.655Z,17.43
2023-04-12T08:45:36.572Z,15.30
2023-04-12T08:48:05.901Z,13.13
2023-04-12T08:50:33.317Z,12.57
2023-04-12T08:53:00.373Z,13.97
2023-04-12T08:55:27.212Z,13.37
2023-04-12T08:57:58.614Z,14.20
2023-04-12T09:00:26.330Z,14.03
2023-04-12T09:02:53.645Z,14.03
2023-04-12T09:05:23.152Z,12.73
2023-04-12T09:07:50.209Z,15.47
2023-04-12T09:10:38.072Z,13.47
2023-04-12T09:13:06.047Z,13.70
2023-04-12T09:15:34.580Z,15.37
2023-04-12T09:18:11.677Z,15.50
2023-04-12T09:20:39.429Z,13.97
2023-04-12T09:23:24.731Z,15.70
2023-04-12T09:25:53.453Z,16.30
2023-04-12T09:28:26.057Z,15.67
2023-04-12T09:30:58.150Z,14.43
2023-04-12T09:33:46.176Z,14.47
2023-04-12T09:36:17.600Z,13.07
2023-04-12T09:39:01.624Z,13.68
2023-04-12T09:41:32.133Z,16.53
2023-04-12T09:44:00.096Z,14.30
2023-04-12T09:46:28.032Z,13.83
2023-04-12T09:48:56.426Z,13.63
2023-04-12T09:51:34.188Z,17.33
2023-04-12T09:54:03.261Z,13.53
2023-04-12T09:56:35.934Z,13.50
2023-04-12T09:59:07.547Z,12.70
2023-04-12T10:01:37.060Z,15.60
2023-04-12T10:04:06.432Z,13.87
2023-04-12T10:06:39.149Z,13.30
2023-04-12T10:09:08.693Z,13.50
2023-04-12T10:11:37.458Z,14.70
2023-04-12T10:14:05.991Z,14.43
2023-04-12T10:16:34.897Z,14.57
2023-04-12T10:19:04.186Z,16.43
2023-04-12T10:21:31.949Z,15.33
2023-04-12T10:23:59.528Z,15.13
2023-04-12T10:26:27.379Z,15.53
2023-04-12T10:29:28.464Z,15.33
2023-04-12T10:32:05.897Z,14.60
2023-04-12T10:34:32.929Z,17.23
2023-04-12T10:37:01.771Z,14.87
2023-04-12T10:39:36.542Z,14.13
2023-04-12T10:42:23.681Z,16.60
2023-04-12T10:44:52.947Z,15.30
2023-04-12T10:47:54.672Z,16.40
2023-04-12T10:50:32.062Z,17.52
2023-04-12T10:53:13.558Z,14.68
2023-04-12T10:55:41.352Z,16.13
2023-04-12T10:58:08.741Z,17.33
2023-04-12T11:00:58.235Z,15.55
2023-04-12T11:03:28.941Z,17.00
2023-04-12T11:06:09.619Z,15.50
2023-04-12T11:08:42.168Z,16.38
2023-04-12T11:11:34.030Z,15.90
2023-04-12T11:14:02.418Z,16.13
2023-04-12T11:16:29.314Z,15.65
2023-04-12T11:18:56.560Z,16.90
2023-04-12T11:21:24.740Z,15.80
2023-04-12T11:23:53.674Z,19.70
2023-04-12T11:26:22.077Z,16.33
2023-04-12T11:28:53.050Z,16.70
2023-04-12T11:31:21.242Z,17.70
2023-04-12T11:33:48.071Z,17.53
2023-04-12T11:36:14.926Z,16.37
2023-04-12T11:38:42.019Z,17.23
2023-04-12T11:41:09.705Z,15.30
2023-04-12T11:43:41.037Z,18.42
2023-04-12T11:46:08.268Z,16.40
2023-04-12T11:48:38.498Z,19.83
2023-04-12T11:51:32.148Z,77.97
2023-04-12T11:53:59.910Z,22.48
2023-04-12T11:56:29.232Z,18.27
2023-04-12T11:58:56.197Z,17.42
2023-04-12T12:01:23.944Z,18.27
2023-04-12T12:03:51.379Z,17.37
2023-04-12T12:06:19.842Z,25.40
2023-04-12T12:08:48.606Z,17.17
2023-04-12T12:11:15.742Z,19.05
2023-04-12T12:13:48.590Z,17.87
2023-04-12T12:16:16.330Z,17.63
2023-04-12T12:18:50.953Z,16.33
2023-04-12T12:21:19.377Z,18.20
2023-04-12T12:23:47.403Z,16.67
2023-04-12T12:26:30.742Z,17.92
2023-04-12T12:29:00.199Z,14.25
2023-04-12T12:31:28.688Z,18.45
2023-04-12T12:33:58.428Z,17.63
2023-04-12T12:36:36.201Z,21.27
2023-04-12T12:39:12.030Z,15.27
2023-04-12T12:41:40.337Z,14.10
2023-04-12T12:44:08.418Z,17.25
2023-04-12T12:49:05.441Z,14.68
2023-04-12T12:51:32.397Z,14.32
2023-04-12T12:53:59.902Z,13.93
2023-04-12T12:56:26.877Z,14.18
2023-04-12T12:58:53.647Z,15.65
2023-04-12T13:01:20.698Z,14.30
2023-04-12T13:03:47.740Z,14.85
2023-04-12T13:06:14.793Z,14.65
2023-04-12T13:08:41.731Z,14.55
2023-04-12T13:11:08.779Z,14.10
2023-04-12T13:13:36.381Z,13.18
2023-04-12T13:16:03.600Z,13.63
2023-04-12T13:18:30.637Z,14.63
2023-04-12T13:20:57.349Z,11.88
2023-04-12T13:23:24.413Z,12.20
2023-04-12T13:25:51.161Z,12.00
2023-04-12T13:28:18.091Z,11.25
2023-04-12T13:30:44.991Z,11.07
2023-04-12T13:33:14.321Z,11.40
2023-04-12T13:35:45.300Z,9.80
2023-04-12T13:38:12.372Z,9.98
2023-04-12T13:40:39.380Z,10.60
2023-04-12T13:43:07.613Z,10.48
2023-04-12T13:45:34.646Z,12.30
2023-04-12T13:48:02.033Z,12.90
2023-04-12T13:50:29.161Z,10.77
2023-04-12T13:52:55.990Z,12.68
2023-04-12T13:55:22.952Z,10.30
2023-04-12T13:57:49.746Z,11.02
2023-04-12T14:00:17.497Z,12.82
2023-04-12T14:02:44.409Z,11.68
2023-04-12T14:05:11.989Z,11.68
2023-04-12T14:07:39.090Z,17.10
2023-04-12T14:10:06.668Z,12.77
2023-04-12T14:12:33.500Z,15.13
2023-04-12T14:15:00.572Z,13.30
2023-04-12T14:17:32.365Z,13.77
2023-04-12T14:20:00.074Z,13.25
2023-04-12T14:22:27.211Z,15.68
2023-04-12T14:24:54.021Z,13.65
2023-04-12T14:27:21.122Z,11.38
2023-04-12T14:29:48.043Z,12.35
2023-04-12T14:32:14.979Z,12.00
2023-04-12T14:34:43.436Z,11.00
2023-04-12T14:37:10.786Z,11.65
2023-04-12T14:39:38.398Z,13.90
2023-04-12T14:42:06.250Z,10.75
2023-04-12T14:44:33.052Z,11.13
2023-04-12T14:46:59.906Z,12.10
2023-04-12T14:49:26.734Z,16.67
2023-04-12T14:51:53.601Z,12.98
2023-04-12T14:54:21.534Z,11.73
2023-04-12T14:56:53.867Z,14.70
2023-04-12T14:59:22.610Z,12.07
2023-04-12T15:01:49.650Z,9.38
2023-04-12T15:04:17.141Z,11.38
2023-04-12T15:06:45.070Z,10.32
2023-04-12T15:09:14.285Z,9.73
2023-04-12T15:11:46.265Z,14.77
2023-04-12T15:14:19.964Z,11.88
2023-04-12T15:16:49.248Z,11.25
2023-04-12T15:19:20.795Z,13.00
2023-04-12T15:21:52.577Z,12.70
2023-04-12T15:24:19.855Z,16.42
2023-04-12T15:26:52.594Z,14.25
2023-04-12T15:29:22.745Z,13.02
2023-04-12T15:31:50.415Z,12.25
2023-04-12T15:34:17.656Z,12.55
2023-04-12T15:36:46.093Z,11.90
2023-04-12T15:39:14.707Z,13.90
2023-04-12T15:41:42.858Z,14.80
2023-04-12T15:44:13.848Z,12.35
2023-04-12T15:46:41.814Z,9.93
2023-04-12T15:49:09.418Z,10.98
2023-04-12T15:51:36.675Z,11.35
2023-04-12T15:54:05.694Z,9.90
2023-04-12T15:56:32.661Z,14.77
2023-04-12T15:59:01.289Z,18.03
2023-04-12T16:01:28.624Z,14.55
2023-04-12T16:03:55.772Z,12.63
2023-04-12T16:06:24.431Z,13.60
2023-04-12T16:08:54.933Z,13.35
2023-04-12T16:11:23.847Z,12.97
2023-04-12T16:13:53.461Z,14.43
2023-04-12T16:16:23.681Z,13.07
2023-04-12T16:18:51.635Z,13.17
2023-04-12T16:21:20.365Z,12.18
2023-04-12T16:23:50.309Z,13.50
2023-04-12T16:26:21.939Z,12.13
2023-04-12T16:28:50.691Z,13.47
2023-04-12T16:31:19.789Z,13.73
2023-04-12T16:33:51.247Z,15.40
2023-04-12T16:36:18.681Z,14.90
2023-04-12T16:38:46.266Z,12.63
2023-04-12T16:41:13.024Z,15.02
2023-04-12T16:43:39.772Z,17.53
2023-04-12T16:46:07.138Z,19.80
2023-04-12T16:48:35.964Z,14.73
2023-04-12T16:51:03.527Z,16.17
2023-04-12T16:53:30.705Z,13.93
2023-04-12T16:56:01.751Z,14.50
2023-04-12T16:58:29.144Z,13.10
2023-04-12T17:00:57.190Z,12.67
2023-04-12T17:03:24.483Z,12.20
2023-04-12T17:05:51.706Z,15.67
2023-04-12T17:08:18.825Z,14.93
2023-04-12T17:10:45.688Z,16.17
2023-04-12T17:13:17.125Z,11.50
2023-04-12T17:15:48.019Z,14.30
2023-04-12T17:18:15.507Z,14.97
2023-04-12T17:20:42.882Z,14.77
2023-04-12T17:23:10.181Z,12.13
2023-04-12T17:25:37.901Z,13.77
2023-04-12T17:28:05.154Z,15.83
2023-04-12T17:30:32.236Z,16.93
2023-04-12T17:33:01.817Z,12.10
2023-04-12T17:35:29.191Z,15.20
2023-04-12T17:37:56.382Z,13.80
2023-04-12T17:40:23.204Z,15.33
2023-04-12T17:42:50.153Z,19.53
2023-04-12T17:45:18.443Z,14.67
2023-04-12T17:47:45.309Z,17.30
2023-04-12T17:50:12.501Z,17.20
2023-04-12T17:52:40.638Z,18.80
2023-04-12T17:55:12.532Z,18.97
2023-04-12T17:57:39.703Z,17.80
2023-04-12T18:00:11.913Z,16.37
2023-04-12T18:02:39.905Z,20.07
2023-04-12T18:05:07.645Z,22.70
2023-04-12T18:07:35.439Z,25.67
2023-04-12T18:10:03.312Z,22.97
2023-04-12T18:12:30.333Z,30.67
2023-04-12T18:14:57.444Z,29.87
2023-04-12T18:17:26.396Z,31.20
2023-04-12T18:19:54.977Z,31.90
2023-04-12T18:22:22.615Z,34.57
2023-04-12T18:24:49.679Z,29.80
2023-04-12T18:27:16.459Z,34.30
2023-04-12T18:29:43.303Z,35.17
2023-04-12T18:32:10.384Z,33.70
2023-04-12T18:34:37.320Z,36.70
2023-04-12T18:37:05.977Z,33.00
2023-04-12T18:39:34.536Z,35.63
2023-04-12T18:42:01.799Z,37.67
2023-04-12T18:44:29.869Z,31.23
2023-04-12T18:46:56.789Z,40.40
2023-04-12T18:49:24.165Z,32.40
2023-04-12T18:51:53.215Z,35.33
2023-04-12T18:54:21.100Z,36.97
2023-04-12T18:56:48.202Z,42.27
2023-04-12T18:59:17.831Z,33.93
2023-04-12T19:01:45.410Z,39.67
2023-04-12T19:04:12.675Z,54.63
2023-04-12T19:06:39.468Z,50.13
2023-04-12T19:09:06.588Z,49.40
2023-04-12T19:11:36.286Z,43.63
2023-04-12T19:14:03.826Z,44.00
2023-04-12T19:16:30.973Z,207.27
2023-04-12T19:19:00.014Z,137.67
2023-04-12T19:21:28.900Z,96.60
2023-04-12T19:23:56.351Z,77.13
2023-04-12T19:26:23.431Z,72.93
2023-04-12T19:28:55.706Z,63.23
2023-04-12T19:31:23.801Z,58.10
2023-04-12T19:33:50.890Z,81.10
2023-04-12T19:36:17.932Z,71.53
2023-04-12T19:38:47.814Z,70.13
2023-04-12T19:41:17.026Z,67.13
2023-04-12T19:43:43.772Z,103.30
2023-04-12T19:46:11.054Z,90.83
2023-04-12T19:48:38.295Z,83.73
2023-04-12T19:51:05.483Z,73.50
2023-04-12T19:53:33.344Z,91.43
2023-04-12T19:56:00.844Z,87.70
2023-04-12T19:58:27.639Z,79.30
2023-04-12T20:00:55.700Z,85.50
2023-04-12T20:03:23.369Z,91.07
2023-04-12T20:05:50.218Z,78.43
2023-04-12T20:08:16.984Z,79.53
2023-04-12T20:10:43.786Z,99.97
2023-04-12T20:13:15.134Z,78.07
2023-04-12T20:15:44.883Z,68.87
2023-04-12T20:18:13.451Z,65.77
2023-04-12T20:20:44.820Z,63.73
2023-04-12T20:23:14.759Z,67.33
2023-04-12T20:25:42.661Z,71.63
2023-04-12T20:28:10.025Z,81.03
2023-04-12T20:30:37.112Z,69.73
2023-04-12T20:33:04.431Z,74.03
2023-04-12T20:35:33.112Z,76.47
2023-04-12T20:38:00.318Z,75.17
2023-04-12T20:40:29.735Z,80.77
2023-04-12T20:42:57.921Z,73.00
2023-04-12T20:45:24.846Z,73.40
2023-04-12T20:47:51.961Z,73.30
2023-04-12T20:50:22.426Z,69.17
2023-04-12T20:52:51.926Z,72.53
2023-04-12T20:55:19.266Z,73.43
2023-04-12T20:57:46.087Z,67.90
2023-04-12T21:00:17.740Z,63.83
2023-04-12T21:02:48.894Z,63.93
2023-04-12T21:05:16.886Z,67.80
2023-04-12T21:07:46.795Z,64.23
2023-04-12T21:10:14.839Z,72.17
2023-04-12T21:12:44.897Z,71.50
2023-04-12T21:15:12.213Z,65.40
2023-04-12T21:17:40.488Z,69.07
2023-04-12T21:20:13.676Z,73.27
2023-04-12T21:22:45.178Z,70.80
2023-04-12T21:25:16.560Z,62.10
2023-04-12T21:27:45.763Z,61.63
2023-04-12T21:30:13.747Z,64.20
2023-04-12T21:32:42.759Z,61.07
2023-04-12T21:35:11.129Z,59.63
2023-04-12T21:37:39.200Z,60.60
2023-04-12T21:40:12.194Z,57.50
2023-04-12T21:42:40.109Z,66.33
2023-04-12T21:45:09.468Z,65.47
2023-04-12T21:47:39.091Z,61.17
2023-04-12T21:50:07.756Z,60.23
2023-04-12T21:52:34.867Z,59.33
2023-04-12T21:55:02.428Z,61.67
2023-04-12T21:57:33.491Z,50.33
2023-04-12T22:00:01.591Z,53.40
2023-04-12T22:02:29.638Z,51.90
2023-04-12T22:04:56.885Z,50.73
2023-04-12T22:07:23.786Z,58.40
2023-04-12T22:09:53.765Z,48.13
2023-04-12T22:12:21.780Z,54.53
2023-04-12T22:14:49.760Z,54.83
2023-04-12T22:17:18.859Z,54.00
2023-04-12T22:19:45.869Z,53.50
2023-04-12T22:22:15.438Z,51.43
2023-04-12T22:24:42.626Z,46.07
2023-04-12T22:27:09.493Z,44.37
2023-04-12T22:29:37.792Z,46.60
2023-04-12T22:32:04.971Z,45.80
2023-04-12T22:34:32.471Z,59.40
2023-04-12T22:36:59.264Z,60.93
2023-04-12T22:39:26.965Z,48.80
2023-04-12T22:41:53.861Z,50.40
2023-04-12T22:44:22.162Z,56.57
2023-04-12T22:46:49.724Z,51.50
2023-04-12T22:49:18.144Z,46.80
2023-04-12T22:51:45.423Z,48.93
2023-04-12T22:54:12.466Z,45.10
2023-04-12T22:56:45.257Z,49.00
2023-04-12T22:59:16.785Z,55.97
2023-04-12T23:01:45.857Z,46.17
2023-04-12T23:04:16.962Z,49.10
2023-04-12T23:06:44.583Z,44.67
2023-04-12T23:09:13.229Z,43.57
2023-04-12T23:11:41.037Z,50.43
2023-04-12T23:14:09.279Z,50.57
2023-04-12T23:16:42.250Z,40.43
2023-04-12T23:19:09.184Z,43.93
2023-04-12T23:21:36.308Z,44.87
2023-04-12T23:24:04.448Z,46.93
2023-04-12T23:26:34.252Z,47.87
2023-04-12T23:29:03.690Z,50.63
2023-04-12T23:31:32.307Z,56.37
2023-04-12T23:34:02.683Z,58.40
2023-04-12T23:36:30.496Z,52.07
2023-04-12T23:39:00.322Z,52.17
2023-04-12T23:41:32.003Z,48.13
2023-04-12T23:43:59.999Z,50.33
2023-04-12T23:46:27.830Z,51.30
2023-04-12T23:48:54.607Z,50.57
2023-04-12T23:51:22.694Z,39.27
2023-04-12T23:53:50.166Z,42.30
2023-04-12T23:56:17.231Z,43.67
2023-04-12T23:58:44.284Z,38.37
